createdAt,value
2016-05-31T00:00:38.765Z,99.99
2016-05-31T00:01:38.799Z,99.99
2016-05-31T00:02:38.833Z,99.99
2016-05-31T00:03:38.867Z,99.99
2016-05-31T00:04:38.900Z,99.99
2016-05-31T00:05:38.950Z,99.99
2016-05-31T00:06:38.985Z,99.99
2016-05-31T00:07:38.862Z,99.99
2016-05-31T00:08:39.052Z,99.99
2016-05-31T00:09:38.930Z,99.99
2016-05-31T00:10:39.136Z,99.99
2016-05-31T00:11:39.154Z,99.99
2016-05-31T00:12:39.188Z,99.99
2016-05-31T00:13:39.237Z,99.99
2016-05-31T00:14:39.271Z,99.99
2016-05-31T00:15:39.305Z,99.99
2016-05-31T00:16:39.371Z,99.99
2016-05-31T00:17:39.389Z,99.99
2016-05-31T00:18:39.406Z,99.99
2016-05-31T00:19:39.441Z,99.99
2016-05-31T00:20:39.491Z,99.99
2016-05-31T00:21:39.525Z,99.99
2016-05-31T00:22:39.558Z,99.99
2016-05-31T00:23:39.592Z,99.99
2016-05-31T00:24:39.625Z,99.99
2016-05-31T00:25:39.676Z,99.99
2016-05-31T00:26:39.694Z,99.99
2016-05-31T00:27:39.728Z,99.99
2016-05-31T00:28:39.777Z,99.99
2016-05-31T00:29:39.812Z,99.99
2016-05-31T00:30:39.845Z,99.99
2016-05-31T00:31:39.880Z,99.99
2016-05-31T00:32:39.913Z,99.99
2016-05-31T00:33:39.947Z,99.99
2016-05-31T00:34:39.997Z,99.99
2016-05-31T00:35:40.031Z,99.99
2016-05-31T00:36:40.065Z,99.99
2016-05-31T00:37:40.427Z,99.99
2016-05-31T00:38:40.148Z,99.99
2016-05-31T00:39:40.167Z,99.99
2016-05-31T00:40:40.201Z,99.99
2016-05-31T00:41:40.249Z,99.99
2016-05-31T00:42:40.284Z,99.99
2016-05-31T00:43:40.318Z,99.99
2016-05-31T00:44:40.352Z,99.99
2016-05-31T00:45:40.385Z,99.99
2016-05-31T00:46:40.420Z,99.99
2016-05-31T00:47:40.454Z,99.99
2016-05-31T00:48:40.488Z,99.99
2016-05-31T00:49:40.522Z,99.99
2016-05-31T00:50:40.556Z,99.99
2016-05-31T00:51:40.589Z,99.99
2016-05-31T00:52:40.640Z,99.99
2016-05-31T00:53:40.673Z,99.99
2016-05-31T00:54:40.707Z,99.99
2016-05-31T00:55:40.741Z,99.99
2016-05-31T00:56:40.619Z,99.99
2016-05-31T00:57:40.809Z,99.99
2016-05-31T00:58:40.858Z,99.99
2016-05-31T00:59:40.892Z,99.99
2016-05-31T01:00:40.926Z,99.99
2016-05-31T01:01:40.960Z,99.99
2016-05-31T01:02:40.994Z,99.99
2016-05-31T01:03:41.028Z,99.99
2016-05-31T01:04:40.922Z,99.99
2016-05-31T01:05:41.111Z,99.99
2016-05-31T01:06:41.146Z,99.99
2016-05-31T01:07:41.539Z,99.99
2016-05-31T01:08:41.213Z,99.99
2016-05-31T01:09:41.263Z,99.99
2016-05-31T01:10:41.282Z,99.99
2016-05-31T01:11:41.315Z,99.99
2016-05-31T01:12:41.349Z,99.99
2016-05-31T01:13:41.399Z,99.99
2016-05-31T01:14:41.432Z,99.99
2016-05-31T01:15:41.310Z,99.99
2016-05-31T01:16:41.485Z,99.99
2016-05-31T01:17:41.534Z,99.99
2016-05-31T01:18:41.568Z,99.99
2016-05-31T01:19:41.602Z,99.99
2016-05-31T01:20:41.636Z,99.99
2016-05-31T01:21:41.686Z,99.99
2016-05-31T01:22:41.704Z,99.99
2016-05-31T01:23:41.769Z,99.99
2016-05-31T01:24:41.788Z,99.99
2016-05-31T01:25:41.822Z,99.99
2016-05-31T01:26:41.871Z,99.99
2016-05-31T01:27:41.889Z,99.99
2016-05-31T01:28:41.923Z,99.99
2016-05-31T01:29:41.958Z,99.99
2016-05-31T01:30:41.992Z,99.99
2016-05-31T01:31:42.025Z,99.99
2016-05-31T01:32:42.075Z,99.99
2016-05-31T01:33:42.108Z,99.99
2016-05-31T01:34:42.143Z,99.99
2016-05-31T01:35:42.177Z,99.99
2016-05-31T01:36:42.210Z,99.99
2016-05-31T01:37:42.573Z,99.99
2016-05-31T01:38:42.278Z,99.99
2016-05-31T01:39:42.328Z,99.99
2016-05-31T01:40:42.346Z,99.99
2016-05-31T01:41:42.396Z,99.99
2016-05-31T01:42:42.429Z,99.99
2016-05-31T01:43:42.448Z,99.99
2016-05-31T01:44:42.498Z,99.99
2016-05-31T01:45:42.532Z,99.99
2016-05-31T01:46:42.565Z,99.99
2016-05-31T01:47:42.599Z,99.99
2016-05-31T01:48:42.477Z,99.99
2016-05-31T01:49:42.668Z,99.99
2016-05-31T01:50:42.701Z,99.99
2016-05-31T01:51:42.735Z,99.99
2016-05-31T01:52:42.785Z,99.99
2016-05-31T01:53:42.818Z,99.99
2016-05-31T01:54:42.837Z,99.99
2016-05-31T01:55:42.887Z,99.99
2016-05-31T01:56:42.921Z,99.99
2016-05-31T01:57:42.954Z,99.99
2016-05-31T01:58:43.004Z,99.99
2016-05-31T01:59:43.022Z,99.99
2016-05-31T02:00:43.056Z,99.99
2016-05-31T02:01:42.934Z,99.99
2016-05-31T02:02:43.125Z,99.99
2016-05-31T02:03:43.174Z,99.99
2016-05-31T02:04:43.208Z,99.99
2016-05-31T02:05:43.241Z,99.99
2016-05-31T02:06:43.276Z,99.99
2016-05-31T02:07:43.169Z,99.99
2016-05-31T02:08:43.343Z,99.99
2016-05-31T02:09:43.377Z,99.99
2016-05-31T02:10:43.411Z,99.99
2016-05-31T02:11:43.446Z,99.99
2016-05-31T02:12:43.339Z,99.99
2016-05-31T02:13:43.513Z,99.99
2016-05-31T02:14:43.563Z,99.99
2016-05-31T02:15:43.597Z,99.99
2016-05-31T02:16:43.630Z,99.99
2016-05-31T02:17:43.649Z,99.99
2016-05-31T02:18:43.699Z,99.99
2016-05-31T02:19:43.733Z,99.99
2016-05-31T02:20:43.766Z,99.99
2016-05-31T02:21:43.676Z,99.99
2016-05-31T02:22:43.709Z,99.99
2016-05-31T02:23:43.868Z,99.99
2016-05-31T02:24:43.902Z,99.99
2016-05-31T02:25:43.937Z,99.99
2016-05-31T02:26:43.971Z,99.99
2016-05-31T02:27:44.020Z,99.99
2016-05-31T02:28:44.054Z,99.99
2016-05-31T02:29:44.073Z,99.99
2016-05-31T02:30:44.122Z,99.99
2016-05-31T02:31:44.156Z,99.99
2016-05-31T02:32:44.189Z,99.99
2016-05-31T02:33:44.067Z,99.99
2016-05-31T02:34:44.258Z,99.99
2016-05-31T02:35:44.292Z,99.99
2016-05-31T02:36:44.325Z,99.99
2016-05-31T02:37:44.625Z,99.99
2016-05-31T02:38:44.393Z,99.99
2016-05-31T02:39:44.442Z,99.99
2016-05-31T02:40:44.477Z,99.99
2016-05-31T02:41:44.510Z,99.99
2016-05-31T02:42:44.388Z,99.99
2016-05-31T02:43:44.578Z,99.99
2016-05-31T02:44:44.613Z,99.99
2016-05-31T02:45:44.646Z,99.99
2016-05-31T02:46:44.680Z,99.99
2016-05-31T02:47:44.713Z,99.99
2016-05-31T02:48:44.748Z,99.99
2016-05-31T02:49:44.782Z,99.99
2016-05-31T02:50:44.816Z,99.99
2016-05-31T02:51:44.850Z,99.99
2016-05-31T02:52:45.493Z,99.99
2016-05-31T02:53:44.934Z,99.99
2016-05-31T02:54:44.967Z,99.99
2016-05-31T02:55:45.001Z,99.99
2016-05-31T02:56:45.035Z,99.99
2016-05-31T02:57:45.070Z,99.99
2016-05-31T02:58:45.103Z,99.99
2016-05-31T02:59:45.137Z,99.99
2016-05-31T03:00:45.170Z,99.99
2016-05-31T03:01:45.049Z,99.99
2016-05-31T03:02:45.239Z,99.99
2016-05-31T03:03:45.273Z,99.99
2016-05-31T03:04:45.150Z,99.99
2016-05-31T03:05:45.356Z,99.99
2016-05-31T03:06:45.406Z,99.99
2016-05-31T03:07:45.580Z,99.99
2016-05-31T03:08:45.943Z,99.99
2016-05-31T03:09:45.336Z,99.99
2016-05-31T03:10:45.526Z,99.99
2016-05-31T03:11:45.560Z,99.99
2016-05-31T03:12:45.593Z,99.99
2016-05-31T03:13:45.472Z,99.99
2016-05-31T03:14:45.661Z,99.99
2016-05-31T03:15:45.711Z,99.99
2016-05-31T03:16:45.589Z,99.99
2016-05-31T03:17:45.763Z,99.99
2016-05-31T03:18:45.797Z,99.99
2016-05-31T03:19:45.832Z,99.99
2016-05-31T03:20:45.865Z,99.99
2016-05-31T03:21:45.915Z,99.99
2016-05-31T03:22:46.668Z,99.99
2016-05-31T03:23:46.311Z,99.99
2016-05-31T03:24:46.017Z,99.99
2016-05-31T03:25:45.895Z,99.99
2016-05-31T03:26:46.085Z,99.99
2016-05-31T03:27:46.118Z,99.99
2016-05-31T03:28:46.152Z,99.99
2016-05-31T03:29:46.187Z,99.99
2016-05-31T03:30:46.220Z,99.99
2016-05-31T03:31:46.254Z,99.99
2016-05-31T03:32:46.289Z,99.99
2016-05-31T03:33:46.322Z,99.99
2016-05-31T03:34:46.356Z,99.99
2016-05-31T03:35:46.390Z,99.99
2016-05-31T03:36:46.440Z,99.99
2016-05-31T03:37:46.473Z,99.99
2016-05-31T03:38:46.351Z,99.99
2016-05-31T03:39:46.542Z,99.99
2016-05-31T03:40:46.560Z,99.99
2016-05-31T03:41:46.453Z,99.99
2016-05-31T03:42:46.643Z,99.99
2016-05-31T03:43:46.677Z,99.99
2016-05-31T03:44:46.711Z,99.99
2016-05-31T03:45:46.744Z,99.99
2016-05-31T03:46:46.780Z,99.99
2016-05-31T03:47:46.657Z,99.99
2016-05-31T03:48:46.690Z,99.99
2016-05-31T03:49:46.897Z,99.99
2016-05-31T03:50:46.915Z,99.99
2016-05-31T03:51:46.792Z,99.99
2016-05-31T03:52:47.218Z,99.99
2016-05-31T03:53:47.079Z,99.99
2016-05-31T03:54:47.066Z,99.99
2016-05-31T03:55:47.101Z,99.99
2016-05-31T03:56:46.993Z,99.99
2016-05-31T03:57:47.012Z,99.99
2016-05-31T03:58:47.218Z,99.99
2016-05-31T03:59:47.236Z,99.99
2016-05-31T04:00:47.114Z,99.99
2016-05-31T04:01:47.319Z,99.99
2016-05-31T04:02:47.198Z,99.99
2016-05-31T04:03:47.231Z,99.99
2016-05-31T04:04:47.420Z,99.99
2016-05-31T04:05:47.456Z,99.99
2016-05-31T04:06:47.489Z,99.99
2016-05-31T04:07:47.382Z,99.99
2016-05-31T04:08:47.588Z,99.99
2016-05-31T04:09:47.592Z,99.99
2016-05-31T04:10:47.625Z,99.99
2016-05-31T04:11:47.658Z,99.99
2016-05-31T04:12:47.537Z,99.99
2016-05-31T04:13:47.727Z,99.99
2016-05-31T04:14:47.776Z,99.99
2016-05-31T04:15:47.794Z,99.99
2016-05-31T04:16:47.828Z,99.99
2016-05-31T04:17:47.878Z,99.99
2016-05-31T04:18:47.912Z,99.99
2016-05-31T04:19:47.946Z,99.99
2016-05-31T04:20:47.980Z,99.99
2016-05-31T04:21:48.013Z,99.99
2016-05-31T04:22:48.048Z,99.99
2016-05-31T04:23:48.769Z,99.99
2016-05-31T04:24:48.132Z,99.99
2016-05-31T04:25:48.149Z,99.99
2016-05-31T04:26:48.199Z,99.99
2016-05-31T04:27:48.233Z,99.99
2016-05-31T04:28:48.267Z,99.99
2016-05-31T04:29:48.284Z,99.99
2016-05-31T04:30:48.334Z,99.99
2016-05-31T04:31:48.369Z,99.99
2016-05-31T04:32:48.246Z,99.99
2016-05-31T04:33:48.436Z,99.99
2016-05-31T04:34:48.471Z,99.82
2016-05-31T04:35:48.348Z,97.76
2016-05-31T04:36:48.538Z,94.83
2016-05-31T04:37:48.714Z,94.16
2016-05-31T04:38:48.622Z,94.4
2016-05-31T04:39:48.656Z,94.16
2016-05-31T04:40:48.689Z,91.13
2016-05-31T04:41:48.725Z,88.68
2016-05-31T04:42:48.758Z,87.86
2016-05-31T04:43:48.635Z,86.22
2016-05-31T04:44:48.841Z,82.65
2016-05-31T04:45:48.875Z,83.42
2016-05-31T04:46:48.909Z,82.17
2016-05-31T04:47:48.943Z,80.63
2016-05-31T04:48:48.993Z,79.17
2016-05-31T04:49:49.027Z,79.9
2016-05-31T04:50:49.076Z,81.25
2016-05-31T04:51:49.110Z,84.16
2016-05-31T04:52:49.144Z,83.92
2016-05-31T04:53:49.335Z,82.9
2016-05-31T04:54:49.212Z,82.14
2016-05-31T04:55:49.262Z,82.9
2016-05-31T04:56:49.139Z,80.3
2016-05-31T04:57:49.345Z,79.86
2016-05-31T04:58:49.379Z,78.36
2016-05-31T04:59:49.397Z,79.03
2016-05-31T05:00:49.447Z,79.9
2016-05-31T05:01:49.481Z,77.78
2016-05-31T05:02:49.530Z,78.65
2016-05-31T05:03:49.580Z,76.96
2016-05-31T05:04:49.598Z,74.3
2016-05-31T05:05:49.648Z,71.86
2016-05-31T05:06:49.525Z,70.74
2016-05-31T05:07:50.248Z,70.16
2016-05-31T05:08:49.765Z,70
2016-05-31T05:09:49.814Z,71.67
2016-05-31T05:10:49.848Z,72.54
2016-05-31T05:11:49.882Z,73.75
2016-05-31T05:12:49.917Z,73.53
2016-05-31T05:13:49.966Z,71.73
2016-05-31T05:14:50.000Z,71.86
2016-05-31T05:15:50.050Z,73.08
2016-05-31T05:16:50.099Z,71.64
2016-05-31T05:17:49.977Z,72.34
2016-05-31T05:18:50.166Z,74.58
2016-05-31T05:19:50.217Z,76.38
2016-05-31T05:20:50.250Z,77.34
2016-05-31T05:21:50.300Z,80.35
2016-05-31T05:22:50.349Z,80.4
2016-05-31T05:23:50.399Z,80.88
2016-05-31T05:24:50.418Z,80.79
2016-05-31T05:25:50.451Z,80.5
2016-05-31T05:26:50.360Z,78.96
2016-05-31T05:27:50.535Z,79
2016-05-31T05:28:50.585Z,75.99
2016-05-31T05:29:50.462Z,74.45
2016-05-31T05:30:50.668Z,73.18
2016-05-31T05:31:50.702Z,74.05
2016-05-31T05:32:50.751Z,72.89
2016-05-31T05:33:50.785Z,72.92
2016-05-31T05:34:50.835Z,71.67
2016-05-31T05:35:50.885Z,69.32
2016-05-31T05:36:50.918Z,67.82
2016-05-31T05:37:50.796Z,64.56
2016-05-31T05:38:51.002Z,66.2
2016-05-31T05:39:51.036Z,66.08
2016-05-31T05:40:51.086Z,66.56
2016-05-31T05:41:51.119Z,66.08
2016-05-31T05:42:51.014Z,64.47
2016-05-31T05:43:51.203Z,65.37
2016-05-31T05:44:51.253Z,67.14
2016-05-31T05:45:51.286Z,68.55
2016-05-31T05:46:51.336Z,69.32
2016-05-31T05:47:51.386Z,71.92
2016-05-31T05:48:51.419Z,74.58
2016-05-31T05:49:51.453Z,76.67
2016-05-31T05:50:51.502Z,76.09
2016-05-31T05:51:51.553Z,74.78
2016-05-31T05:52:52.102Z,72.99
2016-05-31T05:53:51.698Z,71.58
2016-05-31T05:54:51.671Z,70.32
2016-05-31T05:55:51.719Z,70.45
2016-05-31T05:56:51.754Z,72.54
2016-05-31T05:57:51.655Z,74.14
2016-05-31T05:58:51.873Z,76.18
2016-05-31T05:59:51.949Z,78.65
2016-05-31T06:00:52.025Z,80.25
2016-05-31T06:01:52.085Z,82.42
2016-05-31T06:02:51.984Z,83.25
2016-05-31T06:03:52.215Z,84.74
2016-05-31T06:04:52.258Z,86.95
2016-05-31T06:05:52.302Z,87.96
2016-05-31T06:06:52.205Z,88.64
2016-05-31T06:07:52.480Z,88.83
2016-05-31T06:08:52.439Z,88.06
2016-05-31T06:09:52.493Z,88.64
2016-05-31T06:10:52.531Z,88.83
2016-05-31T06:11:52.583Z,89.46
2016-05-31T06:12:52.620Z,88.88
2016-05-31T06:13:52.513Z,89.26
2016-05-31T06:14:52.550Z,89.36
2016-05-31T06:15:52.757Z,89.55
2016-05-31T06:16:52.635Z,89.36
2016-05-31T06:17:52.826Z,90.13
2016-05-31T06:18:52.892Z,89.94
2016-05-31T06:19:52.910Z,90.22
2016-05-31T06:20:52.960Z,90.22
2016-05-31T06:21:52.994Z,89.84
2016-05-31T06:22:52.889Z,89.94
2016-05-31T06:23:53.344Z,91.09
2016-05-31T06:24:53.112Z,90.8
2016-05-31T06:25:52.991Z,92.14
2016-05-31T06:26:53.196Z,91.76
2016-05-31T06:27:53.230Z,91.13
2016-05-31T06:28:53.263Z,92.19
2016-05-31T06:29:53.298Z,92.38
2016-05-31T06:30:53.348Z,89.84
2016-05-31T06:31:53.225Z,88.79
2016-05-31T06:32:53.431Z,89.69
2016-05-31T06:33:53.464Z,89.94
2016-05-31T06:34:53.499Z,90.08
2016-05-31T06:35:53.532Z,91.9
2016-05-31T06:36:53.598Z,90.66
2016-05-31T06:37:53.459Z,90.84
2016-05-31T06:38:53.651Z,87.68
2016-05-31T06:39:53.700Z,87.19
2016-05-31T06:40:53.733Z,88.16
2016-05-31T06:41:53.783Z,89.69
2016-05-31T06:42:53.661Z,90.84
2016-05-31T06:43:53.851Z,86.52
2016-05-31T06:44:53.728Z,86.05
2016-05-31T06:45:53.919Z,86.33
2016-05-31T06:46:53.952Z,86.52
2016-05-31T06:47:54.003Z,85.95
2016-05-31T06:48:54.052Z,85.75
2016-05-31T06:49:54.070Z,86.72
2016-05-31T06:50:54.120Z,87.77
2016-05-31T06:51:53.997Z,88.25
2016-05-31T06:52:54.719Z,87.19
2016-05-31T06:53:54.237Z,86.52
2016-05-31T06:54:54.271Z,88.25
2016-05-31T06:55:54.305Z,88.35
2016-05-31T06:56:54.355Z,87.68
2016-05-31T06:57:54.388Z,86.14
2016-05-31T06:58:54.423Z,87.1
2016-05-31T06:59:54.457Z,87.29
2016-05-31T07:00:54.507Z,88.54
2016-05-31T07:01:54.384Z,87.68
2016-05-31T07:02:54.574Z,87.39
2016-05-31T07:03:54.607Z,87.87
2016-05-31T07:04:54.642Z,86.91
2016-05-31T07:05:54.692Z,87.39
2016-05-31T07:06:54.725Z,87.77
2016-05-31T07:07:55.681Z,88.16
2016-05-31T07:08:55.246Z,87.68
2016-05-31T07:09:54.843Z,88.93
2016-05-31T07:10:54.876Z,86.62
2016-05-31T07:11:54.911Z,86.43
2016-05-31T07:12:54.944Z,86.91
2016-05-31T07:13:54.995Z,88.06
2016-05-31T07:14:55.028Z,84.8
2016-05-31T07:15:55.078Z,83.45
2016-05-31T07:16:55.111Z,85.99
2016-05-31T07:17:55.145Z,84.51
2016-05-31T07:18:55.179Z,84.45
2016-05-31T07:19:55.214Z,83.2
2016-05-31T07:20:55.263Z,82.68
2016-05-31T07:21:55.297Z,82.53
2016-05-31T07:22:56.143Z,82.92
2016-05-31T07:23:55.366Z,82.34
2016-05-31T07:24:55.414Z,82.57
2016-05-31T07:25:55.448Z,83.34
2016-05-31T07:26:55.482Z,83.59
2016-05-31T07:27:55.532Z,83.63
2016-05-31T07:28:55.566Z,83.53
2016-05-31T07:29:55.599Z,80.65
2016-05-31T07:30:55.649Z,81.23
2016-05-31T07:31:55.668Z,80.4
2016-05-31T07:32:55.718Z,80.5
2016-05-31T07:33:55.751Z,80.25
2016-05-31T07:34:55.801Z,76.5
2016-05-31T07:35:55.834Z,76.92
2016-05-31T07:36:55.900Z,76.73
2016-05-31T07:37:55.934Z,75.67
2016-05-31T07:38:55.952Z,76.34
2016-05-31T07:39:55.986Z,77.08
2016-05-31T07:40:56.036Z,76.78
2016-05-31T07:41:56.070Z,75.67
2016-05-31T07:42:55.962Z,75.96
2016-05-31T07:43:56.153Z,75.9
2016-05-31T07:44:56.186Z,74.68
2016-05-31T07:45:56.237Z,70.35
2016-05-31T07:46:56.271Z,69.03
2016-05-31T07:47:56.305Z,73.14
2016-05-31T07:48:56.338Z,72.37
2016-05-31T07:49:56.388Z,74.51
2016-05-31T07:50:56.438Z,75.86
2016-05-31T07:51:56.472Z,74.51
2016-05-31T07:52:57.333Z,71.62
2016-05-31T07:53:56.399Z,71.66
2016-05-31T07:54:56.588Z,70.44
2016-05-31T07:55:56.623Z,68.32
2016-05-31T07:56:56.516Z,68.26
2016-05-31T07:57:56.707Z,68.26
2016-05-31T07:58:56.755Z,67.88
2016-05-31T07:59:56.633Z,68.65
2016-05-31T08:00:56.668Z,70.06
2016-05-31T08:01:56.874Z,72.56
2016-05-31T08:02:56.907Z,70.92
2016-05-31T08:03:56.956Z,65.43
2016-05-31T08:04:56.991Z,62.15
2016-05-31T08:05:57.041Z,61.7
2016-05-31T08:06:57.090Z,62.28
2016-05-31T08:07:57.076Z,62.57
2016-05-31T08:08:57.157Z,63.7
2016-05-31T08:09:57.206Z,64.24
2016-05-31T08:10:57.242Z,65.85
2016-05-31T08:11:57.291Z,65.33
2016-05-31T08:12:57.325Z,65.24
2016-05-31T08:13:57.374Z,65.72
2016-05-31T08:14:57.409Z,66.17
2016-05-31T08:15:57.442Z,66.3
2016-05-31T08:16:57.492Z,66.85
2016-05-31T08:17:57.525Z,66.49
2016-05-31T08:18:57.575Z,67.13
2016-05-31T08:19:57.608Z,65.72
2016-05-31T08:20:57.658Z,65.63
2016-05-31T08:21:57.536Z,68.52
2016-05-31T08:22:57.742Z,63.98
2016-05-31T08:23:57.635Z,61.93
2016-05-31T08:24:57.825Z,56.48
2016-05-31T08:25:57.860Z,53.11
2016-05-31T08:26:57.910Z,49.9
2016-05-31T08:27:57.958Z,46.6
2016-05-31T08:28:57.993Z,42.95
2016-05-31T08:29:58.042Z,42.31
2016-05-31T08:30:58.077Z,40.58
2016-05-31T08:31:58.126Z,40.91
2016-05-31T08:32:58.191Z,43.43
2016-05-31T08:33:58.209Z,46.52
2016-05-31T08:34:58.259Z,49.85
2016-05-31T08:35:58.309Z,52.85
2016-05-31T08:36:58.357Z,55.7
2016-05-31T08:37:58.408Z,57.87
2016-05-31T08:38:58.457Z,58.9
2016-05-31T08:39:58.491Z,60.31
2016-05-31T08:40:58.525Z,61.35
2016-05-31T08:41:58.575Z,62.12
2016-05-31T08:42:58.624Z,62.51
2016-05-31T08:43:58.658Z,62.31
2016-05-31T08:44:58.708Z,61.28
2016-05-31T08:45:58.742Z,59.93
2016-05-31T08:46:58.634Z,60.8
2016-05-31T08:47:58.841Z,60.89
2016-05-31T08:48:58.875Z,61.44
2016-05-31T08:49:58.925Z,62.22
2016-05-31T08:50:58.974Z,63.28
2016-05-31T08:51:59.039Z,64.34
2016-05-31T08:52:59.072Z,64.79
2016-05-31T08:54:00.013Z,64.02
2016-05-31T08:54:59.141Z,65.63
2016-05-31T08:55:59.191Z,66.49
2016-05-31T08:56:59.224Z,66.39
2016-05-31T08:57:59.274Z,65.24
2016-05-31T08:58:59.324Z,65.5
2016-05-31T08:59:59.357Z,66.07
2016-05-31T09:00:59.422Z,65.01
2016-05-31T09:01:59.441Z,64.25
2016-05-31T09:02:59.490Z,64.25
2016-05-31T09:03:59.540Z,63.47
2016-05-31T09:04:59.418Z,63.6
2016-05-31T09:05:59.639Z,65.81
2016-05-31T09:06:59.657Z,64.15
2016-05-31T09:07:59.707Z,64.73
2016-05-31T09:08:59.741Z,64.43
2016-05-31T09:09:59.790Z,65.11
2016-05-31T09:10:59.824Z,64.92
2016-05-31T09:11:59.858Z,65.75
2016-05-31T09:12:59.908Z,66.04
2016-05-31T09:13:59.957Z,66.07
2016-05-31T09:14:59.992Z,64.92
2016-05-31T09:16:00.025Z,64.05
2016-05-31T09:16:59.919Z,64.05
2016-05-31T09:18:00.108Z,64.69
2016-05-31T09:19:00.159Z,64.59
2016-05-31T09:20:00.192Z,65.69
2016-05-31T09:21:00.242Z,64.15
2016-05-31T09:22:00.291Z,63.67
2016-05-31T09:23:00.529Z,65.4
2016-05-31T09:24:00.358Z,62.25
2016-05-31T09:25:00.409Z,60.42
2016-05-31T09:26:00.458Z,58.78
2016-05-31T09:27:00.492Z,59.78
2016-05-31T09:28:00.541Z,59.48
2016-05-31T09:29:00.561Z,59.03
2016-05-31T09:30:00.610Z,58.75
2016-05-31T09:31:00.503Z,58.52
2016-05-31T09:32:00.537Z,58.65
2016-05-31T09:33:00.728Z,59.61
2016-05-31T09:34:00.776Z,58.65
2016-05-31T09:35:00.827Z,57.87
2016-05-31T09:36:00.860Z,57.01
2016-05-31T09:37:00.909Z,57.1
2016-05-31T09:38:00.960Z,55.59
2016-05-31T09:39:00.994Z,57.9
2016-05-31T09:40:01.043Z,55.98
2016-05-31T09:41:01.077Z,56.16
2016-05-31T09:42:01.111Z,55.98
2016-05-31T09:43:01.160Z,55.1
2016-05-31T09:44:01.209Z,54.82
2016-05-31T09:45:01.259Z,55.13
2016-05-31T09:46:01.293Z,53.59
2016-05-31T09:47:01.343Z,52.26
2016-05-31T09:48:01.377Z,49.32
2016-05-31T09:49:01.426Z,46.77
2016-05-31T09:50:01.461Z,44.32
2016-05-31T09:51:01.511Z,43.08
2016-05-31T09:52:01.559Z,40.5
2016-05-31T09:53:01.719Z,40.83
2016-05-31T09:54:01.643Z,43.01
2016-05-31T09:55:01.692Z,44.51
2016-05-31T09:56:01.742Z,44.9
2016-05-31T09:57:01.777Z,47.74
2016-05-31T09:58:01.825Z,49.34
2016-05-31T09:59:01.875Z,49.44
2016-05-31T10:00:01.924Z,51.35
2016-05-31T10:01:01.959Z,51.71
2016-05-31T10:02:01.993Z,51.42
2016-05-31T10:03:02.043Z,53.64
2016-05-31T10:04:02.107Z,54.9
2016-05-31T10:05:02.141Z,52.77
2016-05-31T10:06:02.190Z,54.03
2016-05-31T10:07:02.241Z,53.28
2016-05-31T10:08:02.274Z,50.18
2016-05-31T10:09:02.324Z,51.23
2016-05-31T10:10:02.357Z,51.2
2016-05-31T10:11:02.408Z,51.59
2016-05-31T10:12:02.457Z,51.68
2016-05-31T10:13:02.491Z,51.49
2016-05-31T10:14:02.540Z,52.72
2016-05-31T10:15:02.590Z,52.33
2016-05-31T10:16:02.655Z,53.88
2016-05-31T10:17:02.690Z,51.85
2016-05-31T10:18:02.739Z,50.43
2016-05-31T10:19:02.617Z,51.59
2016-05-31T10:20:02.666Z,51.1
2016-05-31T10:21:02.888Z,53.03
2016-05-31T10:22:02.906Z,50.52
2016-05-31T10:23:02.971Z,50.48
2016-05-31T10:24:02.990Z,48.54
2016-05-31T10:25:03.055Z,47.81
2016-05-31T10:26:03.088Z,47.84
2016-05-31T10:27:03.122Z,49.17
2016-05-31T10:28:03.172Z,50.02
2016-05-31T10:29:03.222Z,51.15
2016-05-31T10:30:03.271Z,51.13
2016-05-31T10:31:03.305Z,50.09
2016-05-31T10:32:03.371Z,50.38
2016-05-31T10:33:03.404Z,50.67
2016-05-31T10:34:03.454Z,50.74
2016-05-31T10:35:03.488Z,50.26
2016-05-31T10:36:03.537Z,48.79
2016-05-31T10:37:03.602Z,49.77
2016-05-31T10:38:03.980Z,48.42
2016-05-31T10:39:03.671Z,48.83
2016-05-31T10:40:03.720Z,49.92
2016-05-31T10:41:03.785Z,46.22
2016-05-31T10:42:03.804Z,46.44
2016-05-31T10:43:03.853Z,46.63
2016-05-31T10:44:03.887Z,46.25
2016-05-31T10:45:03.937Z,46.83
2016-05-31T10:46:03.986Z,45.18
2016-05-31T10:47:04.036Z,45.57
2016-05-31T10:48:04.070Z,45.08
2016-05-31T10:49:04.134Z,46.44
2016-05-31T10:50:04.170Z,45.3
2016-05-31T10:51:04.203Z,43.19
2016-05-31T10:52:04.253Z,44.37
2016-05-31T10:53:04.708Z,46.66
2016-05-31T10:54:04.350Z,45.13
2016-05-31T10:55:04.401Z,43.89
2016-05-31T10:56:04.435Z,44.37
2016-05-31T10:57:04.484Z,44.72
2016-05-31T10:58:04.534Z,44.33
2016-05-31T10:59:04.583Z,45.3
2016-05-31T11:00:04.633Z,44.91
2016-05-31T11:01:04.511Z,46.25
2016-05-31T11:02:04.716Z,46.42
2016-05-31T11:03:04.766Z,47.65
2016-05-31T11:04:04.816Z,47.94
2016-05-31T11:05:04.865Z,49.19
2016-05-31T11:06:04.899Z,51.03
2016-05-31T11:07:04.949Z,49.27
2016-05-31T11:08:05.045Z,49.46
2016-05-31T11:09:05.033Z,48.88
2016-05-31T11:10:04.926Z,47.94
2016-05-31T11:11:05.115Z,47.43
2016-05-31T11:12:05.009Z,46.58
2016-05-31T11:13:05.215Z,47.65
2016-05-31T11:14:05.248Z,47.84
2016-05-31T11:15:05.299Z,45.64
2016-05-31T11:16:05.192Z,46.12
2016-05-31T11:17:05.398Z,44.57
2016-05-31T11:18:05.432Z,46.51
2016-05-31T11:19:05.481Z,46.42
2016-05-31T11:20:05.531Z,46.8
2016-05-31T11:21:05.564Z,46.3
2016-05-31T11:22:05.614Z,46.3
2016-05-31T11:23:05.508Z,46.49
2016-05-31T11:24:06.684Z,46.3
2016-05-31T11:25:05.766Z,43.9
2016-05-31T11:26:05.800Z,43.65
2016-05-31T11:27:05.849Z,43.38
2016-05-31T11:28:05.883Z,43.21
2016-05-31T11:29:05.933Z,42.75
2016-05-31T11:30:05.966Z,40.69
2016-05-31T11:31:06.032Z,40.31
2016-05-31T11:32:06.065Z,40.52
2016-05-31T11:33:06.116Z,41
2016-05-31T11:34:06.149Z,41.68
2016-05-31T11:35:06.199Z,40.4
2016-05-31T11:36:06.091Z,40.36
2016-05-31T11:37:06.298Z,38.56
2016-05-31T11:38:06.925Z,37.32
2016-05-31T11:39:06.396Z,35
2016-05-31T11:40:06.432Z,36
2016-05-31T11:41:06.496Z,36.4
2016-05-31T11:42:06.373Z,36.93
2016-05-31T11:43:06.580Z,37.12
2016-05-31T11:44:06.629Z,39.76
2016-05-31T11:45:06.679Z,41.95
2016-05-31T11:46:06.729Z,44.31
2016-05-31T11:47:06.778Z,44.26
2016-05-31T11:48:06.670Z,46.66
2016-05-31T11:49:06.861Z,48.47
2016-05-31T11:50:06.911Z,49.53
2016-05-31T11:51:06.804Z,49.7
2016-05-31T11:52:07.026Z,48.18
2016-05-31T11:53:07.278Z,47.81
2016-05-31T11:54:06.953Z,47.72
2016-05-31T11:55:07.158Z,47.55
2016-05-31T11:56:07.192Z,48.13
2016-05-31T11:57:07.242Z,47.07
2016-05-31T11:58:07.292Z,48.71
2016-05-31T11:59:07.341Z,46.68
2016-05-31T12:00:07.391Z,46.9
2016-05-31T12:01:07.440Z,46.8
2016-05-31T12:02:07.490Z,47.67
2016-05-31T12:03:07.369Z,45.95
2016-05-31T12:04:07.574Z,46.34
2016-05-31T12:05:07.608Z,46.73
2016-05-31T12:06:07.657Z,46.44
2016-05-31T12:07:07.706Z,47.89
2016-05-31T12:08:07.600Z,46.42
2016-05-31T12:09:07.791Z,43.44
2016-05-31T12:10:07.683Z,40.38
2016-05-31T12:11:07.890Z,37.53
2016-05-31T12:12:07.954Z,34.87
2016-05-31T12:13:07.973Z,32.31
2016-05-31T12:14:08.023Z,30.98
2016-05-31T12:15:08.071Z,33.43
2016-05-31T12:16:08.121Z,37.45
2016-05-31T12:17:08.156Z,38.42
2016-05-31T12:18:08.220Z,39.47
2016-05-31T12:19:08.254Z,39.18
2016-05-31T12:20:08.320Z,40.69
2016-05-31T12:21:08.370Z,40.59
2016-05-31T12:22:08.420Z,42.32
2016-05-31T12:23:08.468Z,42.32
2016-05-31T12:24:08.502Z,40.75
2016-05-31T12:25:08.536Z,38.45
2016-05-31T12:26:08.601Z,39.95
2016-05-31T12:27:08.651Z,39.74
2016-05-31T12:28:08.700Z,40.23
2016-05-31T12:29:08.734Z,36.66
2016-05-31T12:30:08.784Z,35.25
2016-05-31T12:31:08.833Z,35.37
2016-05-31T12:32:08.883Z,37.39
2016-05-31T12:33:08.932Z,38.25
2016-05-31T12:34:08.982Z,38.93
2016-05-31T12:35:09.016Z,40.08
2016-05-31T12:36:09.066Z,40.92
2016-05-31T12:37:09.116Z,42.55
2016-05-31T12:38:09.180Z,43
2016-05-31T12:39:09.215Z,43
2016-05-31T12:40:09.263Z,44.06
2016-05-31T12:41:09.313Z,42.88
2016-05-31T12:42:09.363Z,44.5
2016-05-31T12:43:09.397Z,44.38
2016-05-31T12:44:09.446Z,44.4
2016-05-31T12:45:09.496Z,43.24
2016-05-31T12:46:09.545Z,42.76
2016-05-31T12:47:09.595Z,41.42
2016-05-31T12:48:09.630Z,41.35
2016-05-31T12:49:09.695Z,41.64
2016-05-31T12:50:09.729Z,43.19
2016-05-31T12:51:09.778Z,43.92
2016-05-31T12:52:09.812Z,44.53
2016-05-31T12:53:09.877Z,42.68
2016-05-31T12:54:09.911Z,42.3
2016-05-31T12:55:09.961Z,42.9
2016-05-31T12:56:10.011Z,43.37